首页
METAR-TAF:

METAR-TAF

机场 :

重庆江北国际机场

重庆, 中华人民共和国

纬度: 29-31N, 经度: 106-29E, 海拔: 351米

当前天气观测

该预报发布于45分钟前的19:00 UTC
风速4节,风向
温度 24°C
湿度 61%
气压 1006 hPa
能见度10公里或以上
1500米以下无云,无积雨云

METAR: ZUCK 231900Z 35002MPS CAVOK 24/16 Q1006 NOSIG

时间: 03:45 (19:45 UTC)

预报

该预报发布于4小时和42分钟前的15:03 UTC
预报有效从23日的 18点(UTC)到 24日的 18点(UTC)
风速6节,风向
能見度: 6000
散云层高于4000英尺
短暂存在
从 23日的 21点(UTC)到 24日的 03点(UTC)
少量云层高于3000英尺, 积雨云.
散云层高于4000英尺
小阵雨
短暂存在
从 24日的 15点(UTC)到 24日的 18点(UTC)
少量云层高于3000英尺, 积雨云.
阴天层高于4000英尺
雷暴, 雨

TAF: ZUCK 231503Z 2318/2418 01003MPS 6000 SCT040 TX26/2408Z TN20/2322Z TEMPO 2321/2403 -SHRA FEW030CB SCT040 TEMPO 2415/2418 TSRA FEW030CB OVC040

超过4000个机场的气象观测和天气预报(METAR&TAF报告)。

可查询的气象台以黄色和红色小点在地图上表示。

将鼠标移到小点上方,可查看气象台名称。

然后点击查看天气观测和预报。

如需切换地图:点击带黑十字的绿色按钮放大地图;点击带横线的绿色按钮缩小地图;或者点击绿色箭头查看邻近地区的地图。


METAR-TAF: